Météo Nord-Pas-de-Calais   La météo au plus près de chez vous

Station météorologique

Observations météo à Bergerac (24037)

24037005 49 m Dernier relevé à 23:42
17.5°C
Humidité 68 % Vent 5.8 km/h 1022.5 hPa

Journée consultée

Lundi 31 Août 2026

Synthèse de la journée

Périodes de référence en UTC

Température maximale

28.2°C

à 17:12

06h 06h

Température minimale

12°C

à 07:00

18h 18h

Rafale maximale

40 km/h

à 13:24

00h 00h

Précipitations

0 mm

Cumul quotidien

06h 06h

Ensoleillement

9h 12 mins

Durée quotidienne

00h 00h

Graphiques de la journée

Heure locale Réduire

Données détaillées

Relevés météo

Pas de 6 minutes Afficher les relevés infra-horaires
Relevés météo détaillés à Bergerac pour le Lundi 31 Août 2026
Heure Température °C Point de rosée °C Humidité % Vent moyen (raf.), km/h Précipitations mm Température à 10 cm °C Température à 20 cm °C Température à 50 cm °C Visibilité m État du sol   Hauteur neige cm Ensoleillement min Rayonnement global W/m² Pression hPa Nébulosité Octas
23:42 17.5 °C 13 °C 75 % 7 km/h (9 km/h) 0 mm0 mm 23.2 °C 23.6 °C 22.4 °C 60000 m 0   0 cm 0 min 0 W/m² 1022.9 hPa
23:36 17.4 °C 12.9 °C 75 % 7 km/h (10 km/h) 0 mm0 mm 23.3 °C 23.6 °C 22.4 °C 60000 m 0   0 cm 0 min 0 W/m² 1022.9 hPa
23:30 17.2 °C 12.5 °C 74 % 6 km/h (8 km/h) 0 mm0 mm 23.3 °C 23.6 °C 22.4 °C 60000 m 0   0 cm 0 min 0 W/m² 1022.9 hPa
23:24 17.2 °C 12.7 °C 75 % 6 km/h (8 km/h) 0 mm0 mm 23.4 °C 23.6 °C 22.4 °C 60000 m 0   0 cm 0 min 0 W/m² 1022.8 hPa
23:18 17 °C 12.3 °C 74 % 5 km/h (8 km/h) 0 mm0 mm 23.5 °C 23.6 °C 22.4 °C 60000 m 0   0 cm 0 min 0 W/m² 1022.8 hPa
23:12 17.2 °C 12.3 °C 73 % 5 km/h (8 km/h) 0 mm0 mm 23.5 °C 23.7 °C 22.4 °C 60000 m 0   0 cm 0 min 0 W/m² 1022.8 hPa
23:06 17.4 °C 12.3 °C 72 % 4 km/h (7 km/h) 0 mm0 mm 23.6 °C 23.7 °C 22.4 °C 15320 m 0   0 cm 0 min 0 W/m² 1022.7 hPa
23:00 17.7 °C 12.6 °C 72 % 4 km/h (7 km/h) 0 mm0 mm 23.6 °C 23.7 °C 22.4 °C 15820 m 0   0 cm 0 min 0 W/m² 1022.7 hPa
22:54 17.8 °C 12.5 °C 71 % 3 km/h (7 km/h) 0 mm0 mm 23.7 °C 23.7 °C 22.4 °C 58180 m 0   0 cm 0 min 0 W/m² 1022.6 hPa
22:48 18 °C 12.2 °C 69 % 5 km/h (8 km/h) 0 mm0 mm 23.8 °C 23.7 °C 22.4 °C 60000 m 0   0 cm 0 min 0 W/m² 1022.6 hPa
22:42 18.4 °C 12.4 °C 68 % 6 km/h (8 km/h) 0 mm0 mm 23.8 °C 23.7 °C 22.4 °C 60000 m 0   0 cm 0 min 0 W/m² 1022.5 hPa
22:36 18.8 °C 12.3 °C 66 % 7 km/h (10 km/h) 0 mm0 mm 23.9 °C 23.8 °C 22.4 °C 60000 m 0   0 cm 0 min 0 W/m² 1022.5 hPa
22:30 19.1 °C 12.4 °C 65 % 9 km/h (11 km/h) 0 mm0 mm 24 °C 23.8 °C 22.4 °C 60000 m 0   0 cm 0 min 0 W/m² 1022.4 hPa
22:24 19.4 °C 12.9 °C 66 % 10 km/h (13 km/h) 0 mm0 mm 24 °C 23.8 °C 22.3 °C 60000 m 0   0 cm 0 min 0 W/m² 1022.3 hPa
22:18 19.5 °C 13 °C 66 % 10 km/h (14 km/h) 0 mm0 mm 24.1 °C 23.8 °C 22.3 °C 60000 m 0   0 cm 0 min 0 W/m² 1022.3 hPa
22:12 19.6 °C 12.8 °C 65 % 8 km/h (14 km/h) 0 mm0 mm 24.1 °C 23.8 °C 22.3 °C 60000 m 0   0 cm 0 min 0 W/m² 1022.2 hPa
22:06 19.8 °C 12.3 °C 62 % 7 km/h (10 km/h) 0 mm0 mm 24.2 °C 23.8 °C 22.3 °C 60000 m 0   0 cm 0 min 0 W/m² 1022.2 hPa
22:00 20 °C 12.2 °C 61 % 7 km/h (11 km/h) 0 mm0 mm 24.3 °C 23.8 °C 22.3 °C 60000 m 0   0 cm 0 min 0 W/m² 1022.1 hPa
21:54 20.4 °C 12.4 °C 60 % 6 km/h (11 km/h) 0 mm0 mm 24.3 °C 23.8 °C 22.3 °C 60000 m 0   0 cm 0 min 0 W/m² 1022.1 hPa
21:48 20.8 °C 12.5 °C 59 % 6 km/h (9 km/h) 0 mm0 mm 24.4 °C 23.8 °C 22.3 °C 60000 m 0   0 cm 0 min 0 W/m² 1022 hPa
21:42 21.1 °C 12.5 °C 58 % 6 km/h (9 km/h) 0 mm0 mm 24.5 °C 23.8 °C 22.3 °C 60000 m 0   0 cm 0 min 0 W/m² 1021.9 hPa
21:36 21.1 °C 12.5 °C 58 % 8 km/h (9 km/h) 0 mm0 mm 24.5 °C 23.8 °C 22.3 °C 60000 m 0   0 cm 0 min 0 W/m² 1021.8 hPa
21:30 20.7 °C 12.1 °C 58 % 9 km/h (11 km/h) 0 mm0 mm 24.6 °C 23.8 °C 22.3 °C 60000 m 0   0 cm 0 min 0 W/m² 1021.8 hPa
21:24 21.1 °C 12 °C 56 % 9 km/h (13 km/h) 0 mm0 mm 24.7 °C 23.8 °C 22.3 °C 60000 m 0   0 cm 0 min 0 W/m² 1021.7 hPa
21:18 21.3 °C 12.2 °C 56 % 9 km/h (10 km/h) 0 mm0 mm 24.8 °C 23.8 °C 22.3 °C 60000 m 0   0 cm 0 min 0 W/m² 1021.6 hPa
21:12 21.4 °C 12 °C 55 % 10 km/h (13 km/h) 0 mm0 mm 24.8 °C 23.8 °C 22.3 °C 60000 m 0   0 cm 0 min 0 W/m² 1021.5 hPa
21:06 21.8 °C 12.4 °C 55 % 11 km/h (15 km/h) 0 mm0 mm 24.9 °C 23.8 °C 22.3 °C 19280 m 0   0 cm 0 min 0 W/m² 1021.4 hPa
21:00 22 °C 12.3 °C 54 % 11 km/h (15 km/h) 0 mm0 mm 24.9 °C 23.8 °C 22.3 °C 19430 m 0   0 cm 0 min 0 W/m² 1021.4 hPa
20:54 22.2 °C 12.2 °C 53 % 12 km/h (17 km/h) 0 mm0 mm 25 °C 23.8 °C 22.3 °C 60000 m 0   0 cm 0 min 0 W/m² 1021.3 hPa
20:48 22.7 °C 12.3 °C 52 % 12 km/h (17 km/h) 0 mm0 mm 25.1 °C 23.8 °C 22.3 °C 60000 m 0   0 cm 0 min 0 W/m² 1021.2 hPa
20:42 22.7 °C 12.3 °C 52 % 11 km/h (15 km/h) 0 mm0 mm 25.1 °C 23.8 °C 22.3 °C 60000 m 0   0 cm 0 min 0 W/m² 1021.2 hPa
20:36 23.2 °C 12.2 °C 50 % 11 km/h (18 km/h) 0 mm0 mm 25.2 °C 23.8 °C 22.3 °C 60000 m 0   0 cm 0 min 0 W/m² 1021.1 hPa
20:30 23.7 °C 12.3 °C 49 % 14 km/h (19 km/h) 0 mm0 mm 25.2 °C 23.8 °C 22.3 °C 60000 m 0   0 cm 0 min 0 W/m² 1021.1 hPa
20:24 23.9 °C 12.2 °C 48 % 14 km/h (20 km/h) 0 mm0 mm 25.3 °C 23.8 °C 22.2 °C 60000 m 0   0 cm 0 min 0 W/m² 1020.9 hPa
20:18 24.3 °C 12.3 °C 47 % 15 km/h (23 km/h) 0 mm0 mm 25.3 °C 23.8 °C 22.2 °C 60000 m 0   0 cm 2 min 9 W/m² 1020.9 hPa
20:12 24.6 °C 12.2 °C 46 % 17 km/h (23 km/h) 0 mm0 mm 25.4 °C 23.8 °C 22.3 °C 60000 m 0   0 cm 6 min 13 W/m² 1020.9 hPa
20:06 24.9 °C 12.1 °C 45 % 18 km/h (23 km/h) 0 mm0 mm 25.5 °C 23.8 °C 22.2 °C 60000 m 0   0 cm 6 min 17.8 W/m² 1020.8 hPa
20:00 25 °C 12.2 °C 45 % 18 km/h (23 km/h) 0 mm0 mm 25.5 °C 23.8 °C 22.2 °C 60000 m 0   0 cm 6 min 23.1 W/m² 1020.8 hPa
19:54 25.3 °C 12.2 °C 44 % 19 km/h (23 km/h) 0 mm0 mm 25.6 °C 23.8 °C 22.3 °C 60000 m 0   0 cm 6 min 28.9 W/m² 1020.7 hPa
19:48 25.6 °C 12.1 °C 43 % 19 km/h (23 km/h) 0 mm0 mm 25.6 °C 23.7 °C 22.3 °C 60000 m 0   0 cm 6 min 34.7 W/m² 1020.7 hPa
19:42 25.9 °C 12 °C 42 % 17 km/h (24 km/h) 0 mm0 mm 25.7 °C 23.7 °C 22.2 °C 60000 m 0   0 cm 6 min 40.2 W/m² 1020.7 hPa
19:36 26.3 °C 11.6 °C 40 % 14 km/h (19 km/h) 0 mm0 mm 25.7 °C 23.7 °C 22.2 °C 60000 m 0   0 cm 6 min 46 W/m² 1020.7 hPa
19:30 26.3 °C 11.6 °C 40 % 15 km/h (20 km/h) 0 mm0 mm 25.7 °C 23.7 °C 22.2 °C 60000 m 0   0 cm 6 min 52.2 W/m² 1020.6 hPa
19:24 26.4 °C 11.7 °C 40 % 16 km/h (24 km/h) 0 mm0 mm 25.8 °C 23.6 °C 22.2 °C 60000 m 0   0 cm 6 min 58 W/m² 1020.6 hPa
19:18 26.5 °C 11.8 °C 40 % 14 km/h (24 km/h) 0 mm0 mm 25.8 °C 23.6 °C 22.2 °C 60000 m 0   0 cm 5 min 52.5 W/m² 1020.7 hPa
19:12 26.7 °C 11.6 °C 39 % 16 km/h (22 km/h) 0 mm0 mm 25.8 °C 23.6 °C 22.2 °C 60000 m 0   0 cm 6 min 72.3 W/m² 1020.7 hPa
19:06 26.8 °C 11.7 °C 39 % 17 km/h (26 km/h) 0 mm0 mm 25.8 °C 23.6 °C 22.2 °C 60000 m 0   0 cm 6 min 79.9 W/m² 1020.7 hPa
19:00 26.9 °C 11.8 °C 39 % 17 km/h (26 km/h) 0 mm0 mm 25.9 °C 23.6 °C 22.2 °C 60000 m 0   0 cm 6 min 86.6 W/m² 1020.7 hPa
18:54 27.1 °C 11.9 °C 39 % 18 km/h (26 km/h) 0 mm0 mm 25.9 °C 23.5 °C 22.2 °C 60000 m 0   0 cm 6 min 93.6 W/m² 1020.7 hPa
18:48 27.1 °C 11.9 °C 39 % 17 km/h (24 km/h) 0 mm0 mm 25.9 °C 23.5 °C 22.2 °C 60000 m 0   0 cm 6 min 101.5 W/m² 1020.7 hPa
18:42 27.4 °C 12.2 °C 39 % 14 km/h (24 km/h) 0 mm0 mm 25.9 °C 23.5 °C 22.2 °C 60000 m 0   0 cm 6 min 110.2 W/m² 1020.7 hPa
18:36 27.3 °C 11.7 °C 38 % 13 km/h (24 km/h) 0 mm0 mm 26 °C 23.5 °C 22.2 °C 60000 m 0   0 cm 6 min 115.9 W/m² 1020.7 hPa
18:30 27.2 °C 11.6 °C 38 % 16 km/h (28 km/h) 0 mm0 mm 26 °C 23.4 °C 22.2 °C 60000 m 0   0 cm 6 min 121.9 W/m² 1020.8 hPa
18:24 27.2 °C 12.4 °C 40 % 15 km/h (24 km/h) 0 mm0 mm 26 °C 23.4 °C 22.2 °C 60000 m 0   0 cm 6 min 126 W/m² 1020.8 hPa
18:18 26.8 °C 11.7 °C 39 % 15 km/h (24 km/h) 0 mm0 mm 25.9 °C 23.4 °C 22.2 °C 60000 m 0   0 cm 2 min 62 W/m² 1020.8 hPa
18:12 27.6 °C 12.4 °C 39 % 19 km/h (28 km/h) 0 mm0 mm 25.9 °C 23.4 °C 22.2 °C 60000 m 0   0 cm 6 min 143.3 W/m² 1020.8 hPa
18:06 27.7 °C 12.5 °C 39 % 19 km/h (29 km/h) 0 mm0 mm 25.9 °C 23.3 °C 22.2 °C 60000 m 0   0 cm 6 min 153.9 W/m² 1020.8 hPa
18:00 27.8 °C 12.2 °C 38 % 15 km/h (29 km/h) 0 mm0 mm 25.9 °C 23.3 °C 22.2 °C 60000 m 0   0 cm 6 min 160.7 W/m² 1020.9 hPa
17:54 27.7 °C 12.1 °C 38 % 17 km/h (25 km/h) 0 mm0 mm 25.9 °C 23.3 °C 22.2 °C 19920 m 0   0 cm 6 min 167.9 W/m² 1020.9 hPa
17:48 28 °C 12.4 °C 38 % 17 km/h (26 km/h) 0 mm0 mm 25.9 °C 23.3 °C 22.2 °C 60000 m 0   0 cm 6 min 175.3 W/m² 1020.9 hPa
17:42 28.1 °C 12.8 °C 39 % 18 km/h (32 km/h) 0 mm0 mm 25.8 °C 23.2 °C 22.2 °C 60000 m 0   0 cm 6 min 177.8 W/m² 1021 hPa
17:36 28 °C 12.4 °C 38 % 18 km/h (32 km/h) 0 mm0 mm 25.8 °C 23.2 °C 22.2 °C 60000 m 0   0 cm 6 min 185.7 W/m² 1021.1 hPa
17:30 27.9 °C 13 °C 40 % 17 km/h (25 km/h) 0 mm0 mm 25.8 °C 23.2 °C 22.2 °C 19430 m 0   0 cm 6 min 204.7 W/m² 1021 hPa
17:24 27.8 °C 13.3 °C 41 % 19 km/h (28 km/h) 0 mm0 mm 25.8 °C 23.2 °C 22.2 °C 19430 m 0   0 cm 4 min 162.5 W/m² 1021.1 hPa
17:18 27.1 °C 13.1 °C 42 % 21 km/h (30 km/h) 0 mm0 mm 25.8 °C 23.1 °C 22.2 °C 60000 m 0   0 cm 0 min 88.9 W/m² 1021.1 hPa
17:12 28.2 °C 13.3 °C 40 % 19 km/h (26 km/h) 0 mm0 mm 25.8 °C 23.1 °C 22.2 °C 60000 m 0   0 cm 6 min 229.6 W/m² 1021.2 hPa
17:06 27.6 °C 12.8 °C 40 % 20 km/h (32 km/h) 0 mm0 mm 25.7 °C 23 °C 22.2 °C 60000 m 0   0 cm 4 min 171.4 W/m² 1021.1 hPa
17:00 28 °C 12.8 °C 39 % 17 km/h (32 km/h) 0 mm0 mm 25.7 °C 23 °C 22.2 °C 60000 m 0   0 cm 6 min 236.8 W/m² 1021.1 hPa
16:54 26.7 °C 12.4 °C 41 % 15 km/h (29 km/h) 0 mm0 mm 25.7 °C 23 °C 22.2 °C 18650 m 0   0 cm 1 min 94 W/m² 1021.1 hPa
16:48 27.3 °C 13.3 °C 42 % 13 km/h (26 km/h) 0 mm0 mm 25.6 °C 22.9 °C 22.2 °C 18650 m 0   0 cm 6 min 238.6 W/m² 1021.1 hPa
16:42 26.3 °C 13.1 °C 44 % 15 km/h (26 km/h) 0 mm0 mm 25.6 °C 22.9 °C 22.2 °C 60000 m 0   0 cm 1 min 98.1 W/m² 1021.2 hPa
16:36 26.4 °C 12.5 °C 42 % 17 km/h (27 km/h) 0 mm0 mm 25.6 °C 22.9 °C 22.2 °C 60000 m 0   0 cm 0 min 42.2 W/m² 1021.2 hPa
16:30 27.9 °C 12.7 °C 39 % 18 km/h (27 km/h) 0 mm0 mm 25.5 °C 22.8 °C 22.2 °C 60000 m 0   0 cm 4 min 190.9 W/m² 1021.3 hPa
16:24 27.8 °C 13.3 °C 41 % 15 km/h (26 km/h) 0 mm0 mm 25.5 °C 22.8 °C 22.2 °C 60000 m 0   0 cm 6 min 260 W/m² 1021.2 hPa
16:18 27.2 °C 13.5 °C 43 % 13 km/h (21 km/h) 0 mm0 mm 25.5 °C 22.7 °C 22.2 °C 60000 m 0   0 cm 6 min 271.2 W/m² 1021.3 hPa
16:12 26.1 °C 13.2 °C 45 % 13 km/h (22 km/h) 0 mm0 mm 25.4 °C 22.7 °C 22.2 °C 60000 m 0   0 cm 1 min 112.9 W/m² 1021.4 hPa
16:06 26.3 °C 13.4 °C 45 % 15 km/h (23 km/h) 0 mm0 mm 25.3 °C 22.7 °C 22.2 °C 60000 m 0   0 cm 0 min 80.4 W/m² 1021.4 hPa
16:00 26.6 °C 13.7 °C 45 % 17 km/h (30 km/h) 0 mm0 mm 25.2 °C 22.7 °C 22.2 °C 60000 m 0   0 cm 1 min 117.7 W/m² 1021.4 hPa
15:54 26.7 °C 14.1 °C 46 % 16 km/h (23 km/h) 0 mm0 mm 25.2 °C 22.6 °C 22.2 °C 60000 m 0   0 cm 1 min 111.6 W/m² 1021.4 hPa
15:48 27.2 °C 14.2 °C 45 % 17 km/h (30 km/h) 0 mm0 mm 25 °C 22.6 °C 22.2 °C 60000 m 0   0 cm 1 min 163.1 W/m² 1021.4 hPa
15:42 27.6 °C 13.9 °C 43 % 14 km/h (30 km/h) 0 mm0 mm 25 °C 22.5 °C 22.2 °C 17880 m 0   0 cm 6 min 290.9 W/m² 1021.5 hPa
15:36 26.6 °C 13 °C 43 % 17 km/h (29 km/h) 0 mm0 mm 24.9 °C 22.5 °C 22.2 °C 17190 m 0   0 cm 5 min 213.3 W/m² 1021.5 hPa
15:30 25.9 °C 13.7 °C 47 % 18 km/h (29 km/h) 0 mm0 mm 24.8 °C 22.5 °C 22.2 °C 60000 m 0   0 cm 1 min 128.3 W/m² 1021.6 hPa
15:24 26.7 °C 13.8 °C 45 % 19 km/h (30 km/h) 0 mm0 mm 24.6 °C 22.5 °C 22.2 °C 60000 m 0   0 cm 5 min 214.4 W/m² 1021.6 hPa
15:18 27.1 °C 14.1 °C 45 % 17 km/h (30 km/h) 0 mm0 mm 24.5 °C 22.4 °C 22.2 °C 60000 m 0   0 cm 6 min 302.6 W/m² 1021.6 hPa
15:12 27 °C 14.4 °C 46 % 15 km/h (26 km/h) 0 mm0 mm 24.4 °C 22.4 °C 22.3 °C 60000 m 0   0 cm 6 min 301.9 W/m² 1021.6 hPa
15:06 26.6 °C 14.4 °C 47 % 15 km/h (25 km/h) 0 mm0 mm 24.3 °C 22.4 °C 22.2 °C 60000 m 0   0 cm 4 min 243.8 W/m² 1021.7 hPa
15:00 27.2 °C 14.2 °C 45 % 15 km/h (27 km/h) 0 mm0 mm 24.2 °C 22.4 °C 22.2 °C 19240 m 0   0 cm 5 min 270.6 W/m² 1021.7 hPa
14:54 26.4 °C 13.8 °C 46 % 17 km/h (27 km/h) 0 mm0 mm 24.1 °C 22.4 °C 22.3 °C 19240 m 0   0 cm 6 min 311.9 W/m² 1021.7 hPa
14:48 26.7 °C 14.8 °C 48 % 17 km/h (24 km/h) 0 mm0 mm 24 °C 22.3 °C 22.3 °C 60000 m 0   0 cm 6 min 310.9 W/m² 1021.7 hPa
14:42 26 °C 14.8 °C 50 % 15 km/h (24 km/h) 0 mm0 mm 23.9 °C 22.3 °C 22.3 °C 60000 m 0   0 cm 5 min 261.7 W/m² 1021.8 hPa
14:36 25.9 °C 14.7 °C 50 % 16 km/h (28 km/h) 0 mm0 mm 23.8 °C 22.3 °C 22.3 °C 60000 m 0   0 cm 6 min 297.5 W/m² 1021.8 hPa
14:30 25.9 °C 14.4 °C 49 % 16 km/h (28 km/h) 0 mm0 mm 23.7 °C 22.3 °C 22.3 °C 60000 m 0   0 cm 6 min 305 W/m² 1021.9 hPa
14:24 25.5 °C 14.6 °C 51 % 15 km/h (23 km/h) 0 mm0 mm 23.6 °C 22.2 °C 22.3 °C 60000 m 0   0 cm 3 min 235.1 W/m² 1021.9 hPa
14:18 25 °C 14.5 °C 52 % 17 km/h (34 km/h) 0 mm0 mm 23.6 °C 22.2 °C 22.3 °C 60000 m 0   0 cm 1 min 171.4 W/m² 1022 hPa
14:12 24.8 °C 14.3 °C 52 % 18 km/h (34 km/h) 0 mm0 mm 23.5 °C 22.2 °C 22.3 °C 60000 m 0   0 cm 0 min 131 W/m² 1022.1 hPa
14:06 25.6 °C 15.6 °C 54 % 14 km/h (25 km/h) 0 mm0 mm 23.4 °C 22.2 °C 22.3 °C 60000 m 0   0 cm 6 min 335.2 W/m² 1022.1 hPa
14:00 24.6 °C 15 °C 55 % 18 km/h (29 km/h) 0 mm0 mm 23.4 °C 22.2 °C 22.3 °C 60000 m 0   0 cm 1 min 168.8 W/m² 1022.1 hPa 7 Octas
13:54 24.6 °C 15 °C 55 % 21 km/h (31 km/h) 0 mm0 mm 23.3 °C 22.1 °C 22.3 °C 60000 m 0   0 cm 1 min 155.7 W/m² 1022.2 hPa
13:48 25 °C 15 °C 54 % 17 km/h (23 km/h) 0 mm0 mm 23.3 °C 22.1 °C 22.3 °C 60000 m 0   0 cm 3 min 254.6 W/m² 1022.1 hPa
13:42 24.1 °C 14.8 °C 56 % 18 km/h (27 km/h) 0 mm0 mm 23.2 °C 22.1 °C 22.3 °C 60000 m 0   0 cm 0 min 144.7 W/m² 1022.2 hPa
13:36 24.1 °C 15.6 °C 59 % 19 km/h (27 km/h) 0 mm0 mm 23.1 °C 22.1 °C 22.3 °C 60000 m 0   0 cm 2 min 161 W/m² 1022.2 hPa
13:30 23.5 °C 15.5 °C 61 % 23 km/h (36 km/h) 0 mm0 mm 23 °C 22 °C 22.3 °C 60000 m 0   0 cm 0 min 86.9 W/m² 1022.3 hPa
13:24 23.3 °C 15.6 °C 62 % 28 km/h (40 km/h) 0 mm0 mm 23 °C 22 °C 22.4 °C 60000 m 0   0 cm 0 min 74.7 W/m² 1022.3 hPa
13:18 23.8 °C 15.8 °C 61 % 22 km/h (35 km/h) 0 mm0 mm 22.9 °C 22 °C 22.3 °C 60000 m 0   0 cm 0 min 54.4 W/m² 1022.2 hPa
13:12 25.2 °C 14 °C 50 % 13 km/h (23 km/h) 0 mm0 mm 22.7 °C 22 °C 22.3 °C 60000 m 0   0 cm 0 min 82.3 W/m² 1022 hPa
13:06 25.8 °C 14.9 °C 51 % 14 km/h (24 km/h) 0 mm0 mm 22.6 °C 22 °C 22.4 °C 60000 m 0   0 cm 5 min 300.9 W/m² 1021.8 hPa
13:00 25.7 °C 15.1 °C 52 % 0 mm0 mm 22.5 °C 22 °C 22.3 °C 60000 m 0   0 cm 6 min 309.1 W/m² 1021.9 hPa
12:54 24.9 °C 15 °C 54 % 13 km/h (22 km/h) 0 mm0 mm 22.4 °C 21.9 °C 22.4 °C 60000 m 0   0 cm 2 min 194 W/m² 1021.8 hPa
12:48 24.7 °C 14.5 °C 53 % 13 km/h (21 km/h) 0 mm0 mm 22.3 °C 21.9 °C 22.4 °C 60000 m 0   0 cm 2 min 188.2 W/m² 1021.9 hPa
12:42 24.6 °C 14.7 °C 54 % 15 km/h (22 km/h) 0 mm0 mm 22.2 °C 21.9 °C 22.3 °C 60000 m 0   0 cm 2 min 156 W/m² 1021.9 hPa
12:36 25 °C 14.8 °C 53 % 17 km/h (23 km/h) 0 mm0 mm 22.1 °C 21.9 °C 22.4 °C 60000 m 0   0 cm 6 min 283.1 W/m² 1022 hPa
12:30 24.8 °C 14.9 °C 54 % 16 km/h (22 km/h) 0 mm0 mm 22 °C 21.9 °C 22.4 °C 60000 m 0   0 cm 3 min 189.1 W/m² 1022 hPa
12:24 25 °C 15 °C 54 % 14 km/h (22 km/h) 0 mm0 mm 22 °C 21.9 °C 22.4 °C 60000 m 0   0 cm 3 min 221.7 W/m² 1022 hPa
12:18 25.2 °C 14.9 °C 53 % 13 km/h (22 km/h) 0 mm0 mm 21.9 °C 21.9 °C 22.4 °C 60000 m 0   0 cm 6 min 294.3 W/m² 1022 hPa
12:12 24.4 °C 14.8 °C 55 % 15 km/h (23 km/h) 0 mm0 mm 21.8 °C 21.9 °C 22.4 °C 60000 m 0   0 cm 6 min 275.9 W/m² 1022 hPa
12:06 23.4 °C 15.4 °C 61 % 18 km/h (24 km/h) 0 mm0 mm 21.8 °C 21.9 °C 22.4 °C 60000 m 0   0 cm 2 min 120.7 W/m² 1022.2 hPa
12:00 23.1 °C 14.6 °C 59 % 20 km/h (27 km/h) 0 mm0 mm 21.7 °C 21.9 °C 22.4 °C 60000 m 0   0 cm 0 min 49.8 W/m² 1022.3 hPa 6 Octas
11:54 24 °C 15.2 °C 58 % 17 km/h (26 km/h) 0 mm0 mm 21.7 °C 21.9 °C 22.4 °C 60000 m 0   0 cm 3 min 184.8 W/m² 1022.1 hPa
11:48 24 °C 15.8 °C 60 % 17 km/h (22 km/h) 0 mm0 mm 21.6 °C 21.9 °C 22.4 °C 60000 m 0   0 cm 4 min 223.9 W/m² 1022.1 hPa
11:42 22.7 °C 14.8 °C 61 % 19 km/h (27 km/h) 0 mm0 mm 21.5 °C 21.9 °C 22.4 °C 60000 m 0   0 cm 0 min 51 W/m² 1022.2 hPa
11:36 23.2 °C 14.7 °C 59 % 18 km/h (27 km/h) 0 mm0 mm 21.5 °C 21.9 °C 22.4 °C 60000 m 0   0 cm 1 min 90.1 W/m² 1022.2 hPa
11:30 23.8 °C 15.3 °C 59 % 15 km/h (24 km/h) 0 mm0 mm 21.4 °C 21.9 °C 22.4 °C 19930 m 0   0 cm 5 min 247 W/m² 1022.1 hPa
11:24 23.7 °C 15.5 °C 60 % 16 km/h (24 km/h) 0 mm0 mm 21.4 °C 21.9 °C 22.5 °C 19930 m 0   0 cm 5 min 205.9 W/m² 1022.2 hPa
11:18 22.9 °C 15.7 °C 64 % 15 km/h (25 km/h) 0 mm0 mm 21.3 °C 21.9 °C 22.5 °C 10710 m 0   0 cm 1 min 104 W/m² 1022.2 hPa
11:12 22.6 °C 15.2 °C 63 % 16 km/h (25 km/h) 0 mm0 mm 21.2 °C 21.9 °C 22.5 °C 8270 m 0   0 cm 0 min 69 W/m² 1022.2 hPa
11:06 23.1 °C 15.4 °C 62 % 15 km/h (25 km/h) 0 mm0 mm 21.2 °C 21.9 °C 22.5 °C 18690 m 0   0 cm 2 min 115.7 W/m² 1022.2 hPa
11:00 22.8 °C 15.1 °C 62 % 16 km/h (25 km/h) 0 mm0 mm 21.1 °C 21.9 °C 22.5 °C 60000 m 0   0 cm 3 min 156.2 W/m² 1022.2 hPa 7 Octas
10:54 23.2 °C 16 °C 64 % 15 km/h (25 km/h) 0 mm0 mm 21 °C 21.9 °C 22.5 °C 60000 m 0   0 cm 5 min 207.6 W/m² 1022.2 hPa
10:48 22.7 °C 15.5 °C 64 % 15 km/h (24 km/h) 0 mm0 mm 21 °C 21.9 °C 22.5 °C 60000 m 0   0 cm 5 min 180 W/m² 1022.1 hPa
10:42 22.4 °C 16 °C 67 % 15 km/h (24 km/h) 0 mm0 mm 20.9 °C 21.9 °C 22.5 °C 60000 m 0   0 cm 3 min 126 W/m² 1022.1 hPa
10:36 23 °C 16.3 °C 66 % 12 km/h (19 km/h) 0 mm0 mm 20.9 °C 21.9 °C 22.5 °C 59970 m 0   0 cm 5 min 196.1 W/m² 1022 hPa
10:30 22.2 °C 16 °C 68 % 12 km/h (20 km/h) 0 mm0 mm 20.9 °C 22 °C 22.5 °C 59550 m 0   0 cm 6 min 200.3 W/m² 1022.1 hPa
10:24 21.9 °C 16 °C 69 % 13 km/h (20 km/h) 0 mm0 mm 20.8 °C 21.9 °C 22.5 °C 59580 m 0   0 cm 6 min 164.6 W/m² 1022.1 hPa
10:18 21.9 °C 16.2 °C 70 % 13 km/h (20 km/h) 0 mm0 mm 20.8 °C 22 °C 22.5 °C 59980 m 0   0 cm 6 min 172.5 W/m² 1022 hPa
10:12 21.9 °C 16.2 °C 70 % 13 km/h (20 km/h) 0 mm0 mm 20.7 °C 22 °C 22.5 °C 60000 m 0   0 cm 6 min 167.6 W/m² 1022 hPa
10:06 21.4 °C 16.1 °C 72 % 10 km/h (18 km/h) 0 mm0 mm 20.7 °C 22 °C 22.5 °C 19920 m 0   0 cm 6 min 157.7 W/m² 1022.1 hPa
10:00 21 °C 16 °C 73 % 10 km/h (17 km/h) 0 mm0 mm 20.7 °C 22 °C 22.5 °C 59450 m 0   0 cm 6 min 146.8 W/m² 1022 hPa
09:54 20.7 °C 16.1 °C 75 % 11 km/h (17 km/h) 0 mm0 mm 20.7 °C 22.1 °C 22.5 °C 19700 m 0   0 cm 6 min 140.6 W/m² 1022 hPa
09:48 20.4 °C 16 °C 76 % 11 km/h (18 km/h) 0 mm0 mm 20.6 °C 22.1 °C 22.5 °C 19980 m 0   0 cm 6 min 134.1 W/m² 1021.9 hPa
09:42 20.1 °C 15.9 °C 77 % 9 km/h (17 km/h) 0 mm0 mm 20.6 °C 22.1 °C 22.5 °C 19980 m 0   0 cm 6 min 126.4 W/m² 1021.8 hPa
09:36 19.7 °C 16.2 °C 80 % 7 km/h (14 km/h) 0 mm0 mm 20.6 °C 22.1 °C 22.6 °C 59350 m 0   0 cm 6 min 120 W/m² 1021.8 hPa
09:30 19.3 °C 16.5 °C 84 % 6 km/h (13 km/h) 0 mm0 mm 20.5 °C 22.1 °C 22.6 °C 58900 m 0   0 cm 6 min 114.5 W/m² 1021.8 hPa
09:24 19 °C 16 °C 83 % 6 km/h (12 km/h) 0 mm0 mm 20.5 °C 22.1 °C 22.5 °C 58660 m 0   0 cm 6 min 107.6 W/m² 1021.7 hPa
09:18 18.8 °C 16.4 °C 86 % 6 km/h (12 km/h) 0 mm0 mm 20.5 °C 22.2 °C 22.6 °C 57930 m 0   0 cm 6 min 99.7 W/m² 1021.7 hPa
09:12 18.9 °C 16.9 °C 88 % 5 km/h (9 km/h) 0 mm0 mm 20.5 °C 22.2 °C 22.6 °C 56960 m 0   0 cm 6 min 92.2 W/m² 1021.6 hPa
09:06 18.4 °C 16.6 °C 89 % 6 km/h (9 km/h) 0 mm0 mm 20.5 °C 22.2 °C 22.6 °C 55250 m 0   0 cm 6 min 84.5 W/m² 1021.7 hPa
09:00 17.9 °C 16.9 °C 94 % 5 km/h (11 km/h) 0 mm0 mm 20.5 °C 22.2 °C 22.6 °C 53370 m 0   0 cm 6 min 77.3 W/m² 1021.7 hPa
08:54 17.4 °C 16.8 °C 96 % 6 km/h (11 km/h) 0 mm0 mm 20.5 °C 22.2 °C 22.6 °C 49040 m 0   0 cm 6 min 71.3 W/m² 1021.6 hPa
08:48 16.9 °C 16.6 °C 98 % 5 km/h (9 km/h) 0 mm0 mm 20.5 °C 22.3 °C 22.6 °C 19580 m 0   0 cm 6 min 67.4 W/m² 1021.6 hPa
08:42 16.8 °C 16.6 °C 99 % 4 km/h (9 km/h) 0 mm0 mm 20.5 °C 22.3 °C 22.6 °C 19560 m 0   0 cm 6 min 63.9 W/m² 1021.5 hPa
08:36 16.2 °C 16 °C 99 % 3 km/h (5 km/h) 0 mm0 mm 20.5 °C 22.3 °C 22.6 °C 19840 m 0   0 cm 6 min 60.5 W/m² 1021.5 hPa
08:30 15.8 °C 15.8 °C 100 % 4 km/h (6 km/h) 0 mm0 mm 20.6 °C 22.3 °C 22.6 °C 19780 m 0   0 cm 6 min 55.9 W/m² 1021.5 hPa
08:24 15.4 °C 15.4 °C 100 % 4 km/h (6 km/h) 0 mm0 mm 20.6 °C 22.4 °C 22.6 °C 19510 m 0   0 cm 6 min 48.1 W/m² 1021.5 hPa
08:18 15.2 °C 15.2 °C 100 % 4 km/h (6 km/h) 0 mm0 mm 20.6 °C 22.4 °C 22.6 °C 19170 m 0   0 cm 6 min 40.1 W/m² 1021.4 hPa
08:12 14.7 °C 14.7 °C 100 % 4 km/h (6 km/h) 0 mm0 mm 20.6 °C 22.4 °C 22.6 °C 19550 m 0   0 cm 6 min 31.7 W/m² 1021.4 hPa
08:06 14.4 °C 14.4 °C 100 % 3 km/h (7 km/h) 0 mm0 mm 20.6 °C 22.4 °C 22.6 °C 18500 m 0   0 cm 6 min 24.9 W/m² 1021.4 hPa
08:00 14 °C 13.8 °C 99 % 3 km/h (5 km/h) 0 mm0 mm 20.7 °C 22.4 °C 22.6 °C 16900 m 0   0 cm 6 min 20 W/m² 1021.5 hPa
07:54 13.8 °C 13.6 °C 99 % 3 km/h (6 km/h) 0 mm0 mm 20.7 °C 22.5 °C 22.6 °C 17310 m 0   0 cm 6 min 16.2 W/m² 1021.5 hPa
07:48 13.7 °C 13.5 °C 99 % 2 km/h (4 km/h) 0 mm0 mm 20.7 °C 22.5 °C 22.6 °C 19220 m 0   0 cm 6 min 12 W/m² 1021.4 hPa
07:42 13.7 °C 13.7 °C 100 % 3 km/h (6 km/h) 0 mm0 mm 20.8 °C 22.5 °C 22.7 °C 18490 m 0   0 cm 2 min 4.3 W/m² 1021.4 hPa
07:36 13 °C 12.8 °C 99 % 4 km/h (8 km/h) 0 mm0 mm 20.8 °C 22.5 °C 22.6 °C 18390 m 0   0 cm 0 min 0 W/m² 1021.4 hPa
07:30 13 °C 12.8 °C 99 % 4 km/h (8 km/h) 0 mm0 mm 20.8 °C 22.6 °C 22.7 °C 17410 m 0   0 cm 0 min 0 W/m² 1021.3 hPa
07:24 12.5 °C 12.3 °C 99 % 5 km/h (8 km/h) 0 mm0 mm 20.8 °C 22.6 °C 22.6 °C 15840 m 0   0 cm 0 min 0 W/m² 1021.2 hPa
07:18 12.9 °C 12.7 °C 99 % 4 km/h (7 km/h) 0 mm0 mm 20.9 °C 22.5 °C 22.6 °C 18010 m 0   0 cm 0 min 0 W/m² 1021.1 hPa
07:12 12.4 °C 12.2 °C 99 % 3 km/h (5 km/h) 0 mm0 mm 20.9 °C 22.6 °C 22.7 °C 13730 m 0   0 cm 0 min 0 W/m² 1021.1 hPa
07:06 12.3 °C 12.1 °C 99 % 4 km/h (9 km/h) 0 mm0 mm 20.9 °C 22.6 °C 22.7 °C 6040 m 0   0 cm 0 min 0 W/m² 1021.1 hPa
07:00 12.3 °C 12.1 °C 99 % 5 km/h (9 km/h) 0 mm0 mm 21 °C 22.7 °C 22.7 °C 4920 m 0   0 cm 0 min 0 W/m² 1021.1 hPa
06:54 12.2 °C 12 °C 99 % 4 km/h (6 km/h) 0 mm0 mm 21 °C 22.7 °C 22.6 °C 13280 m 0   0 cm 0 min 0 W/m² 1021 hPa
06:48 12.3 °C 12.1 °C 99 % 5 km/h (7 km/h) 0 mm0 mm 21 °C 22.7 °C 22.7 °C 16340 m 0   0 cm 0 min 0 W/m² 1021 hPa
06:42 12.1 °C 11.9 °C 99 % 4 km/h (7 km/h) 0 mm0 mm 21.1 °C 22.7 °C 22.7 °C 14520 m 0   0 cm 0 min 0 W/m² 1021 hPa
06:36 12.1 °C 11.8 °C 98 % 4 km/h (6 km/h) 0 mm0 mm 21.1 °C 22.8 °C 22.7 °C 12170 m 0   0 cm 0 min 0 W/m² 1020.9 hPa
06:30 12.1 °C 11.8 °C 98 % 3 km/h (5 km/h) 0 mm0 mm 21.2 °C 22.8 °C 22.7 °C 6140 m 0   0 cm 0 min 0 W/m² 1020.9 hPa
06:24 12.4 °C 12.1 °C 98 % 3 km/h (5 km/h) 0 mm0 mm 21.2 °C 22.8 °C 22.7 °C 4030 m 0   0 cm 0 min 0 W/m² 1020.9 hPa
06:18 12.5 °C 12.2 °C 98 % 3 km/h (5 km/h) 0 mm0 mm 21.2 °C 22.9 °C 22.7 °C 6290 m 0   0 cm 0 min 0 W/m² 1020.9 hPa
06:12 12.4 °C 12.1 °C 98 % 4 km/h (6 km/h) 0 mm0 mm 21.3 °C 22.9 °C 22.7 °C 2960 m 0   0 cm 0 min 0 W/m² 1021 hPa
06:06 12.5 °C 12.2 °C 98 % 6 km/h (6 km/h) 0 mm0 mm 21.3 °C 22.9 °C 22.7 °C 9150 m 0   0 cm 0 min 0 W/m² 1021 hPa
06:00 12.3 °C 12 °C 98 % 4 km/h (6 km/h) 0 mm0 mm 21.4 °C 22.9 °C 22.7 °C 16360 m 0   0 cm 0 min 0 W/m² 1021 hPa
05:54 12.7 °C 12.4 °C 98 % 3 km/h (5 km/h) 0 mm0 mm 21.4 °C 22.9 °C 22.7 °C 11570 m 0   0 cm 0 min 0 W/m² 1021 hPa
05:48 12.8 °C 12.5 °C 98 % 3 km/h (4 km/h) 0 mm0 mm 21.4 °C 23 °C 22.7 °C 5630 m 0   0 cm 0 min 0 W/m² 1021 hPa
05:42 12.9 °C 12.6 °C 98 % 3 km/h (4 km/h) 0 mm0 mm 21.5 °C 23 °C 22.7 °C 7120 m 0   0 cm 0 min 0 W/m² 1021 hPa
05:36 12.8 °C 12.5 °C 98 % 3 km/h (4 km/h) 0 mm0 mm 21.5 °C 23 °C 22.7 °C 15130 m 0   0 cm 0 min 0 W/m² 1021 hPa
05:30 12.8 °C 12.3 °C 97 % 3 km/h (5 km/h) 0 mm0 mm 21.6 °C 23.1 °C 22.7 °C 8690 m 0   0 cm 0 min 0 W/m² 1021 hPa
05:24 12.7 °C 12.2 °C 97 % 4 km/h (6 km/h) 0 mm0 mm 21.6 °C 23 °C 22.7 °C 1690 m 0   0 cm 0 min 0 W/m² 1021 hPa
05:18 12.9 °C 12.4 °C 97 % 5 km/h (6 km/h) 0 mm0 mm 21.6 °C 23.1 °C 22.7 °C 1110 m 0   0 cm 0 min 0 W/m² 1021.1 hPa
05:12 13.3 °C 12.8 °C 97 % 4 km/h (5 km/h) 0 mm0 mm 21.7 °C 23.1 °C 22.7 °C 1190 m 0   0 cm 0 min 0 W/m² 1021 hPa
05:06 13.5 °C 13.2 °C 98 % 4 km/h (5 km/h) 0 mm0 mm 21.7 °C 23.1 °C 22.7 °C 4880 m 0   0 cm 0 min 0 W/m² 1021.1 hPa
05:00 13.5 °C 13.2 °C 98 % 3 km/h (5 km/h) 0 mm0 mm 21.7 °C 23.2 °C 22.7 °C 1940 m 0   0 cm 0 min 0 W/m² 1021.1 hPa
04:54 13.5 °C 13 °C 97 % 2 km/h (4 km/h) 0 mm0 mm 21.8 °C 23.2 °C 22.7 °C 2920 m 0   0 cm 0 min 0 W/m² 1021.1 hPa
04:48 13.6 °C 13.1 °C 97 % 3 km/h (4 km/h) 0 mm0 mm 21.8 °C 23.2 °C 22.7 °C 14360 m 0   0 cm 0 min 0 W/m² 1021.1 hPa
04:42 13.6 °C 13.1 °C 97 % 3 km/h (4 km/h) 0 mm0 mm 21.9 °C 23.2 °C 22.7 °C 6600 m 0   0 cm 0 min 0 W/m² 1021.1 hPa
04:36 13.6 °C 13.1 °C 97 % 3 km/h (4 km/h) 0 mm0 mm 21.9 °C 23.2 °C 22.7 °C 7760 m 0   0 cm 0 min 0 W/m² 1021.1 hPa
04:30 13.7 °C 13.2 °C 97 % 3 km/h (4 km/h) 0 mm0 mm 22 °C 23.2 °C 22.7 °C 12860 m 0   0 cm 0 min 0 W/m² 1021.1 hPa
04:24 13.9 °C 13.3 °C 96 % 3 km/h (4 km/h) 0 mm0 mm 22.1 °C 23.3 °C 22.7 °C 18620 m 0   0 cm 0 min 0 W/m² 1021.1 hPa
04:18 13.8 °C 13 °C 95 % 3 km/h (4 km/h) 0 mm0 mm 22.1 °C 23.3 °C 22.7 °C 60000 m 0   0 cm 0 min 0 W/m² 1021.1 hPa
04:12 13.9 °C 13.1 °C 95 % 0 km/h (3 km/h) 0 mm0 mm 22.1 °C 23.3 °C 22.7 °C 4750 m 0   0 cm 0 min 0 W/m² 1021.1 hPa
04:06 14.2 °C 13.4 °C 95 % 2 km/h (4 km/h) 0 mm0 mm 22.2 °C 23.3 °C 22.7 °C 3310 m 0   0 cm 0 min 0 W/m² 1021 hPa
04:00 14.7 °C 14.1 °C 96 % 3 km/h (4 km/h) 0 mm0 mm 22.2 °C 23.4 °C 22.7 °C 12560 m 0   0 cm 0 min 0 W/m² 1020.9 hPa
03:54 14.7 °C 14.1 °C 96 % 2 km/h (3 km/h) 0 mm0 mm 22.2 °C 23.4 °C 22.7 °C 11250 m 0   0 cm 0 min 0 W/m² 1020.9 hPa
03:48 14.8 °C 14.2 °C 96 % 2 km/h (3 km/h) 0 mm0 mm 22.3 °C 23.4 °C 22.7 °C 1430 m 0   0 cm 0 min 0 W/m² 1020.9 hPa
03:42 14.8 °C 14 °C 95 % 0 km/h (4 km/h) 0 mm0 mm 22.4 °C 23.4 °C 22.7 °C 5700 m 0   0 cm 0 min 0 W/m² 1020.9 hPa
03:36 14.9 °C 13.9 °C 94 % 0 km/h (4 km/h) 0 mm0 mm 22.4 °C 23.5 °C 22.7 °C 19740 m 0   0 cm 0 min 0 W/m² 1020.9 hPa
03:30 15.2 °C 14.2 °C 94 % 2 km/h (4 km/h) 0 mm0 mm 22.5 °C 23.5 °C 22.7 °C 19740 m 0   0 cm 0 min 0 W/m² 1020.9 hPa
03:24 15.2 °C 14.2 °C 94 % 3 km/h (4 km/h) 0 mm0 mm 22.5 °C 23.5 °C 22.7 °C 17970 m 0   0 cm 0 min 0 W/m² 1020.9 hPa
03:18 15.3 °C 14.2 °C 93 % 3 km/h (4 km/h) 0 mm0 mm 22.5 °C 23.5 °C 22.7 °C 4840 m 0   0 cm 0 min 0 W/m² 1020.9 hPa
03:12 15.6 °C 14.5 °C 93 % 3 km/h (4 km/h) 0 mm0 mm 22.6 °C 23.5 °C 22.7 °C 60000 m 0   0 cm 0 min 0 W/m² 1020.9 hPa
03:06 15.6 °C 14.1 °C 91 % 3 km/h (4 km/h) 0 mm0 mm 22.6 °C 23.5 °C 22.7 °C 60000 m 0   0 cm 0 min 0 W/m² 1020.9 hPa
03:00 16.1 °C 15 °C 93 % 4 km/h (6 km/h) 0 mm0 mm 22.7 °C 23.6 °C 22.7 °C 60000 m 0   0 cm 0 min 0 W/m² 1020.9 hPa
02:54 16.3 °C 15.2 °C 93 % 5 km/h (8 km/h) 0 mm0 mm 22.7 °C 23.6 °C 22.7 °C 60000 m 0   0 cm 0 min 0 W/m² 1020.9 hPa
02:48 16.4 °C 15.3 °C 93 % 6 km/h (9 km/h) 0 mm0 mm 22.8 °C 23.6 °C 22.7 °C 60000 m 0   0 cm 0 min 0 W/m² 1020.9 hPa
02:42 16.4 °C 15.3 °C 93 % 7 km/h (10 km/h) 0 mm0 mm 22.9 °C 23.7 °C 22.7 °C 60000 m 0   0 cm 0 min 0 W/m² 1020.9 hPa
02:36 16.2 °C 14.9 °C 92 % 7 km/h (9 km/h) 0 mm0 mm 22.9 °C 23.7 °C 22.7 °C 60000 m 0   0 cm 0 min 0 W/m² 1020.8 hPa
02:30 16.3 °C 14.8 °C 91 % 6 km/h (9 km/h) 0 mm0 mm 23 °C 23.7 °C 22.7 °C 60000 m 0   0 cm 0 min 0 W/m² 1020.8 hPa
02:24 16.5 °C 15.2 °C 92 % 6 km/h (8 km/h) 0 mm0 mm 23 °C 23.7 °C 22.7 °C 60000 m 0   0 cm 0 min 0 W/m² 1020.8 hPa
02:18 16.4 °C 14.9 °C 91 % 5 km/h (8 km/h) 0 mm0 mm 23 °C 23.7 °C 22.7 °C 60000 m 0   0 cm 0 min 0 W/m² 1020.8 hPa
02:12 16.5 °C 15 °C 91 % 5 km/h (6 km/h) 0 mm0 mm 23.1 °C 23.8 °C 22.7 °C 60000 m 0   0 cm 0 min 0 W/m² 1020.8 hPa
02:06 16.7 °C 15.1 °C 90 % 4 km/h (6 km/h) 0 mm0 mm 23.2 °C 23.8 °C 22.7 °C 60000 m 0   0 cm 0 min 0 W/m² 1020.8 hPa
02:00 17 °C 15.2 °C 89 % 3 km/h (5 km/h) 0 mm0 mm 23.2 °C 23.8 °C 22.7 °C 60000 m 0   0 cm 0 min 0 W/m² 1020.8 hPa
01:54 17.2 °C 15.4 °C 89 % 4 km/h (5 km/h) 0 mm0 mm 23.2 °C 23.8 °C 22.7 °C 60000 m 0   0 cm 0 min 0 W/m² 1020.8 hPa
01:48 17.4 °C 15.6 °C 89 % 5 km/h (7 km/h) 0 mm0 mm 23.3 °C 23.9 °C 22.7 °C 60000 m 0   0 cm 0 min 0 W/m² 1020.8 hPa
01:42 17.4 °C 15.4 °C 88 % 7 km/h (9 km/h) 0 mm0 mm 23.3 °C 23.8 °C 22.7 °C 60000 m 0   0 cm 0 min 0 W/m² 1020.8 hPa
01:36 17.4 °C 15.4 °C 88 % 8 km/h (9 km/h) 0 mm0 mm 23.4 °C 23.8 °C 22.6 °C 60000 m 0   0 cm 0 min 0 W/m² 1020.7 hPa
01:30 17.4 °C 15.4 °C 88 % 9 km/h (11 km/h) 0 mm0 mm 23.4 °C 23.9 °C 22.7 °C 60000 m 0   0 cm 0 min 0 W/m² 1020.7 hPa
01:24 17.5 °C 15.3 °C 87 % 9 km/h (11 km/h) 0 mm0 mm 23.5 °C 23.9 °C 22.7 °C 60000 m 0   0 cm 0 min 0 W/m² 1020.6 hPa
01:18 17.6 °C 15.4 °C 87 % 9 km/h (12 km/h) 0 mm0 mm 23.5 °C 23.9 °C 22.6 °C 60000 m 0   0 cm 0 min 0 W/m² 1020.6 hPa
01:12 17.7 °C 15.5 °C 87 % 8 km/h (12 km/h) 0 mm0 mm 23.5 °C 23.9 °C 22.6 °C 60000 m 0   0 cm 0 min 0 W/m² 1020.5 hPa
01:06 17.6 °C 15.6 °C 88 % 7 km/h (10 km/h) 0 mm0 mm 23.6 °C 24 °C 22.6 °C 60000 m 0   0 cm 0 min 0 W/m² 1020.5 hPa
01:00 17.5 °C 15.3 °C 87 % 7 km/h (9 km/h) 0 mm0 mm 23.6 °C 24 °C 22.6 °C 60000 m 0   0 cm 0 min 0 W/m² 1020.5 hPa
00:54 17.6 °C 15.2 °C 86 % 7 km/h (8 km/h) 0 mm0 mm 23.7 °C 24 °C 22.6 °C 60000 m 0   0 cm 0 min 0 W/m² 1020.4 hPa
00:48 17.8 °C 15.4 °C 86 % 7 km/h (8 km/h) 0 mm0 mm 23.8 °C 24 °C 22.6 °C 60000 m 0   0 cm 0 min 0 W/m² 1020.4 hPa
00:42 17.9 °C 15.5 °C 86 % 6 km/h (9 km/h) 0 mm0 mm 23.8 °C 24 °C 22.6 °C 60000 m 0   0 cm 0 min 0 W/m² 1020.3 hPa
00:36 17.9 °C 15.5 °C 86 % 7 km/h (9 km/h) 0 mm0 mm 23.9 °C 24 °C 22.6 °C 60000 m 0   0 cm 0 min 0 W/m² 1020.4 hPa
00:30 17.9 °C 15.3 °C 85 % 7 km/h (9 km/h) 0 mm0 mm 23.9 °C 24 °C 22.6 °C 60000 m 0   0 cm 0 min 0 W/m² 1020.3 hPa
00:24 18 °C 15.4 °C 85 % 7 km/h (8 km/h) 0 mm0 mm 24 °C 24.1 °C 22.6 °C 60000 m 0   0 cm 0 min 0 W/m² 1020.2 hPa
00:18 18.2 °C 15.4 °C 84 % 7 km/h (9 km/h) 0 mm0 mm 24 °C 24.1 °C 22.6 °C 60000 m 0   0 cm 0 min 0 W/m² 1020.2 hPa
00:12 18.3 °C 15.5 °C 84 % 6 km/h (9 km/h) 0 mm0 mm 24.1 °C 24.1 °C 22.6 °C 60000 m 0   0 cm 0 min 0 W/m² 1020.1 hPa
00:06 18.5 °C 15.4 °C 82 % 7 km/h (9 km/h) 0 mm0 mm 24.1 °C 24.1 °C 22.6 °C 60000 m 0   0 cm 0 min 0 W/m² 1020 hPa
00:00 18.8 °C 15.7 °C 82 % 7 km/h (9 km/h) 0 mm0 mm 24.2 °C 24.1 °C 22.6 °C 60000 m 0   0 cm 0 min 0 W/m² 1019.9 hPa

Données via Météo-France

Relevés météo à Bergerac

Cette page rassemble les observations de la station de Bergerac : température, humidité, vent, précipitations et pression atmosphérique. Les graphiques facilitent le suivi de la journée, tandis que le tableau donne accès aux mesures horaires et infra-horaires disponibles.

Pour replacer ces mesures dans leur contexte, consultez la climatologie de Bergerac ainsi que ses normales et records. Retrouvez aussi la carte des observations météo en temps réel.